createdAt,value
2023-01-03T00:00:28.097Z,57.56
2023-01-03T00:05:36.451Z,57.46
2023-01-03T00:10:39.554Z,57.34
2023-01-03T00:15:42.749Z,57.44
2023-01-03T00:20:46.871Z,57.63
2023-01-03T00:25:49.622Z,57.47
2023-01-03T00:30:52.851Z,57.45
2023-01-03T00:35:57.007Z,57.67
2023-01-03T00:41:05.916Z,57.43
2023-01-03T00:46:09.361Z,57.34
2023-01-03T00:51:15.261Z,57.73
2023-01-03T00:56:20.222Z,57.60
2023-01-03T01:01:25.244Z,57.54
2023-01-03T01:06:31.329Z,57.70
2023-01-03T01:11:34.517Z,57.60
2023-01-03T01:16:37.305Z,57.65
2023-01-03T01:21:41.646Z,57.91
2023-01-03T01:26:44.631Z,57.88
2023-01-03T01:31:48.485Z,57.99
2023-01-03T01:36:52.819Z,57.88
2023-01-03T01:42:30.995Z,57.73
2023-01-03T01:47:37.860Z,58.07
2023-01-03T01:52:47.347Z,57.99
2023-01-03T01:57:50.841Z,57.87
2023-01-03T02:02:55.110Z,57.86
2023-01-03T02:08:00.394Z,57.97
2023-01-03T02:13:12.299Z,57.83
2023-01-03T02:18:29.296Z,57.99
2023-01-03T02:24:11.557Z,58.27
2023-01-03T02:29:34.326Z,58.21
2023-01-03T02:34:50.808Z,57.99
2023-01-03T02:40:01.022Z,58.15
2023-01-03T02:45:10.464Z,58.24
2023-01-03T02:50:15.518Z,58.33
2023-01-03T02:55:24.082Z,58.22
2023-01-03T03:00:31.637Z,58.07
2023-01-03T03:05:48.715Z,58.04
2023-01-03T03:11:11.826Z,58.21
2023-01-03T03:16:41.562Z,58.25
2023-01-03T03:22:03.050Z,58.38
2023-01-03T03:27:28.144Z,58.28
2023-01-03T03:32:35.013Z,58.35
2023-01-03T03:37:41.919Z,58.28
2023-01-03T03:43:08.290Z,58.31
2023-01-03T03:48:19.207Z,58.41
2023-01-03T03:53:28.161Z,58.07
2023-01-03T03:58:37.608Z,58.38
2023-01-03T04:03:41.984Z,58.32
2023-01-03T04:08:48.298Z,58.33
2023-01-03T04:13:51.178Z,58.17
2023-01-03T04:18:53.964Z,58.42
2023-01-03T04:23:58.023Z,58.83
2023-01-03T04:29:00.779Z,58.93
2023-01-03T04:34:03.594Z,59.10
2023-01-03T04:39:07.813Z,59.13
2023-01-03T04:44:10.937Z,59.14
2023-01-03T04:49:13.665Z,59.23
2023-01-03T04:54:17.765Z,59.42
2023-01-03T04:59:20.502Z,59.63
2023-01-03T05:04:23.373Z,59.66
2023-01-03T05:09:27.791Z,59.83
2023-01-03T05:14:30.735Z,59.75
2023-01-03T05:19:33.544Z,59.82
2023-01-03T05:24:51.576Z,59.96
2023-01-03T05:29:56.194Z,60.18
2023-01-03T05:34:58.931Z,60.38
2023-01-03T05:40:03.140Z,60.48
2023-01-03T05:45:06.816Z,60.62
2023-01-03T05:50:10.116Z,60.84
2023-01-03T05:55:14.275Z,60.84
2023-01-03T06:00:17.596Z,61.11
2023-01-03T06:05:20.389Z,61.32
2023-01-03T06:10:24.597Z,61.44
2023-01-03T06:15:27.512Z,61.61
2023-01-03T06:20:31.017Z,61.91
2023-01-03T06:25:35.154Z,62.09
2023-01-03T06:30:37.958Z,62.14
2023-01-03T06:35:40.960Z,62.33
2023-01-03T06:40:49.796Z,62.50
2023-01-03T06:46:12.129Z,62.80
2023-01-03T06:51:35.704Z,63.13
2023-01-03T06:56:39.848Z,63.20
2023-01-03T07:01:42.697Z,63.53
2023-01-03T07:06:45.777Z,63.52
2023-01-03T07:11:49.888Z,63.63
2023-01-03T07:16:52.607Z,63.75
2023-01-03T07:21:55.339Z,64.05
2023-01-03T07:26:59.461Z,64.04
2023-01-03T07:32:02.999Z,64.23
2023-01-03T07:37:05.964Z,64.28
2023-01-03T07:42:27.748Z,64.32
2023-01-03T07:47:30.857Z,64.41
2023-01-03T07:52:33.825Z,64.63
2023-01-03T07:57:38.193Z,64.62
2023-01-03T08:02:41.096Z,64.60
2023-01-03T08:07:43.966Z,64.66
2023-01-03T08:13:05.380Z,64.77
2023-01-03T08:18:08.188Z,64.07
2023-01-03T08:23:11.425Z,52.82
2023-01-03T08:28:15.607Z,53.98
2023-01-03T08:33:20.370Z,54.24
2023-01-03T08:38:27.900Z,55.19
2023-01-03T08:43:36.524Z,55.14
2023-01-03T08:48:39.535Z,55.08
2023-01-03T08:53:42.296Z,55.36
2023-01-03T08:58:46.607Z,55.54
2023-01-03T09:03:49.642Z,55.88
2023-01-03T09:08:52.754Z,56.32
2023-01-03T09:13:57.534Z,56.53
2023-01-03T09:19:02.516Z,56.98
2023-01-03T09:24:05.886Z,57.63
2023-01-03T09:29:10.072Z,58.20
2023-01-03T09:34:12.943Z,58.51
2023-01-03T09:39:16.539Z,58.66
2023-01-03T09:44:20.684Z,59.08
2023-01-03T09:49:23.529Z,59.82
2023-01-03T09:54:48.059Z,59.85
2023-01-03T10:00:09.807Z,60.08
2023-01-03T10:05:37.398Z,60.30
2023-01-03T10:10:49.472Z,60.39
2023-01-03T10:16:01.750Z,61.62
2023-01-03T10:21:08.800Z,62.47
2023-01-03T10:26:13.369Z,62.26
2023-01-03T10:31:31.827Z,62.35
2023-01-03T10:36:34.666Z,65.68
2023-01-03T10:41:43.281Z,67.71
2023-01-03T10:46:53.592Z,69.74
2023-01-03T10:51:59.991Z,71.65
2023-01-03T10:57:02.876Z,72.06
2023-01-03T11:02:17.534Z,71.86
2023-01-03T11:07:20.518Z,72.31
2023-01-03T11:12:29.621Z,72.18
2023-01-03T11:17:33.786Z,71.49
2023-01-03T11:22:42.854Z,70.92
2023-01-03T11:28:06.857Z,69.78
2023-01-03T11:33:34.404Z,68.67
2023-01-03T11:38:53.618Z,67.29
2023-01-03T11:44:25.125Z,65.14
2023-01-03T11:49:42.911Z,64.24
2023-01-03T11:55:14.358Z,63.12
2023-01-03T12:00:27.483Z,54.07
2023-01-03T12:05:57.398Z,54.49
2023-01-03T12:11:06.619Z,55.86
2023-01-03T12:16:13.518Z,56.24
2023-01-03T12:21:22.850Z,56.32
2023-01-03T12:26:27.436Z,56.60
2023-01-03T12:31:36.982Z,56.91
2023-01-03T12:36:48.364Z,57.07
2023-01-03T12:42:01.200Z,56.97
2023-01-03T12:47:06.859Z,57.06
2023-01-03T12:52:17.230Z,56.99
2023-01-03T12:57:39.668Z,57.34
2023-01-03T13:02:49.880Z,57.55
2023-01-03T13:08:04.944Z,57.35
2023-01-03T13:13:08.529Z,57.26
2023-01-03T13:18:29.736Z,57.24
2023-01-03T13:23:36.809Z,57.64
2023-01-03T13:28:41.128Z,59.01
2023-01-03T13:33:55.812Z,60.00
2023-01-03T13:39:01.674Z,61.11
2023-01-03T13:44:10.086Z,61.17
2023-01-03T13:49:19.536Z,61.91
2023-01-03T13:54:56.012Z,62.65
2023-01-03T14:00:01.153Z,63.18
2023-01-03T14:05:29.694Z,63.05
2023-01-03T14:11:00.529Z,56.77
2023-01-03T14:16:26.678Z,56.06
2023-01-03T14:21:43.696Z,58.13
2023-01-03T14:26:48.270Z,61.95
2023-01-03T14:31:55.761Z,61.82
2023-01-03T14:37:04.761Z,61.88
2023-01-03T14:42:16.596Z,61.96
2023-01-03T14:47:19.817Z,61.96
2023-01-03T14:52:30.217Z,61.93
2023-01-03T14:57:39.253Z,62.01
2023-01-03T15:02:42.519Z,62.11
2023-01-03T15:07:45.551Z,62.26
2023-01-03T15:12:51.435Z,62.38
2023-01-03T15:17:59.835Z,62.57
2023-01-03T15:23:03.382Z,62.43
2023-01-03T15:28:21.256Z,62.75
2023-01-03T15:33:33.088Z,63.01
2023-01-03T15:38:38.667Z,63.18
2023-01-03T15:43:43.225Z,63.21
2023-01-03T15:48:54.485Z,62.99
2023-01-03T15:53:57.277Z,62.97
2023-01-03T15:59:06.726Z,62.81
2023-01-03T16:04:11.136Z,62.85
2023-01-03T16:09:14.227Z,62.88
2023-01-03T16:14:22.225Z,63.01
2023-01-03T16:19:27.911Z,63.34
2023-01-03T16:24:32.817Z,63.17
2023-01-03T16:29:37.219Z,63.25
2023-01-03T16:34:40.009Z,63.49
2023-01-03T16:39:48.009Z,63.41
2023-01-03T16:44:52.959Z,63.59
2023-01-03T16:50:00.695Z,63.47
2023-01-03T16:55:07.248Z,63.55
2023-01-03T17:00:19.400Z,63.85
2023-01-03T17:05:23.280Z,63.99
2023-01-03T17:10:29.913Z,63.88
2023-01-03T17:15:34.094Z,63.52
2023-01-03T17:20:36.824Z,63.29
2023-01-03T17:25:41.513Z,62.88
2023-01-03T17:30:45.744Z,62.79
2023-01-03T17:35:48.801Z,62.72
2023-01-03T17:40:55.318Z,62.54
2023-01-03T17:46:23.481Z,62.18
2023-01-03T17:51:26.923Z,61.99
2023-01-03T17:56:31.149Z,61.64
2023-01-03T18:01:35.427Z,61.29
2023-01-03T18:06:39.533Z,61.13
2023-01-03T18:11:42.954Z,60.75
2023-01-03T18:16:53.169Z,60.45
2023-01-03T18:21:58.488Z,60.02
2023-01-03T18:27:01.356Z,59.84
2023-01-03T18:32:24.864Z,59.58
2023-01-03T18:37:33.247Z,59.27
2023-01-03T18:42:53.745Z,59.05
2023-01-03T18:47:57.995Z,58.90
2023-01-03T18:53:04.189Z,58.82
2023-01-03T18:58:15.118Z,58.82
2023-01-03T19:03:24.112Z,58.63
2023-01-03T19:08:30.414Z,58.76
2023-01-03T19:13:49.952Z,58.68
2023-01-03T19:18:55.450Z,58.50
2023-01-03T19:24:02.515Z,58.57
2023-01-03T19:29:08.252Z,58.54
2023-01-03T19:34:20.468Z,59.00
2023-01-03T19:39:25.888Z,59.36
2023-01-03T19:44:29.565Z,59.32
2023-01-03T19:49:33.761Z,59.33
2023-01-03T19:54:36.589Z,59.41
2023-01-03T19:59:39.945Z,59.13
2023-01-03T20:04:44.956Z,59.07
2023-01-03T20:09:47.924Z,59.06
2023-01-03T20:14:52.232Z,58.99
2023-01-03T20:19:56.400Z,58.92
2023-01-03T20:24:59.252Z,58.77
2023-01-03T20:30:02.017Z,58.68
2023-01-03T20:35:35.498Z,58.75
2023-01-03T20:40:30.122Z,58.67
2023-01-03T20:45:33.745Z,58.58
2023-01-03T20:50:38.071Z,58.65
2023-01-03T20:55:40.875Z,58.45
2023-01-03T21:00:44.035Z,58.61
2023-01-03T21:05:48.195Z,58.21
2023-01-03T21:10:53.646Z,58.53
2023-01-03T21:15:56.756Z,58.30
2023-01-03T21:21:05.981Z,58.10
2023-01-03T21:26:08.758Z,58.29
2023-01-03T21:31:18.345Z,58.30
2023-01-03T21:36:25.836Z,58.35
2023-01-03T21:41:31.137Z,58.30
2023-01-03T21:46:33.911Z,58.55
2023-01-03T21:51:39.308Z,58.51
2023-01-03T21:56:46.844Z,58.22
2023-01-03T22:02:15.700Z,58.22
2023-01-03T22:07:19.989Z,58.23
2023-01-03T22:12:23.953Z,58.33
2023-01-03T22:17:26.735Z,58.27
2023-01-03T22:22:31.202Z,58.29
2023-01-03T22:27:34.001Z,58.46
2023-01-03T22:32:36.762Z,58.48
2023-01-03T22:37:41.791Z,58.57
2023-01-03T22:42:45.014Z,58.70
2023-01-03T22:47:47.889Z,58.60
2023-01-03T22:52:52.008Z,58.91
2023-01-03T22:57:54.834Z,59.07
2023-01-03T23:02:57.675Z,59.01
2023-01-03T23:08:02.048Z,59.37
2023-01-03T23:13:04.823Z,59.72
2023-01-03T23:18:07.568Z,60.11
2023-01-03T23:23:11.720Z,60.54
2023-01-03T23:28:14.491Z,60.87
2023-01-03T23:33:17.382Z,61.19
2023-01-03T23:38:21.604Z,61.54
2023-01-03T23:43:24.393Z,62.08
2023-01-03T23:48:27.236Z,62.22
2023-01-03T23:53:31.575Z,62.63
2023-01-03T23:58:34.895Z,62.71
